Time;durP1;ratioP1;P1;durP2;ratioP2;P2;SDS_P1;SDS_P2;PMS_P1;PMS_P2;Temp;Humidity;BMP_temperature;BMP_pressure;BME280_temperature;BME280_humidity;BME280_pressure;Samples;Min_cycle;Max_cycle;Signal;HPM_P1;HPM_P2
2023/05/04 00:02:20;;;;;;;3.60;1.90;;;;;;;;;;5016274;28;20421;-85
2023/05/04 00:04:46;;;;;;;5.13;1.63;;;;;;;;;;5034394;28;20419;-86
2023/05/04 00:07:12;;;;;;;4.63;2.33;;;;;;;;;;5016735;28;20415;-82
2023/05/04 00:09:38;;;;;;;4.80;2.13;;;;;;;;;;5033777;28;20475;-86
2023/05/04 00:12:04;;;;;;;5.83;2.63;;;;;;;;;;5033013;28;20410;-85
2023/05/04 00:14:29;;;;;;;6.50;1.70;;;;;;;;;;5015582;28;20431;-84
2023/05/04 00:16:55;;;;;;;4.97;2.50;;;;;;;;;;5033147;28;20476;-85
2023/05/04 00:19:21;;;;;;;3.00;1.87;;;;;;;;;;5033148;28;20428;-84
2023/05/04 00:21:47;;;;;;;5.70;1.83;;;;;;;;;;5033214;28;21019;-85
2023/05/04 00:24:13;;;;;;;4.47;2.30;;;;;;;;;;5033051;28;20419;-84
2023/05/04 00:26:39;;;;;;;3.83;0.77;;;;;;;;;;5033049;28;20477;-82
2023/05/04 00:29:05;;;;;;;2.97;1.53;;;;;;;;;;5032883;28;20576;-84
2023/05/04 00:31:31;;;;;;;3.50;1.70;;;;;;;;;;5014778;28;20425;-82
2023/05/04 00:33:57;;;;;;;3.30;1.33;;;;;;;;;;5032893;28;20472;-81
2023/05/04 00:36:23;;;;;;;5.40;2.10;;;;;;;;;;5032562;28;20403;-81
2023/05/04 00:38:50;;;;;;;7.97;2.73;;;;;;;;;;5032838;28;20413;-81
2023/05/04 00:41:16;;;;;;;5.70;1.10;;;;;;;;;;5032834;28;20491;-81
2023/05/04 00:43:42;;;;;;;5.87;1.97;;;;;;;;;;5015463;28;20999;-88
2023/05/04 00:46:09;;;;;;;3.50;1.83;;;;;;;;;;5033385;28;20512;-86
2023/05/04 00:48:35;;;;;;;3.60;1.90;;;;;;;;;;5033902;28;20457;-86
2023/05/04 00:51:01;;;;;;;4.50;2.20;;;;;;;;;;5016487;28;21035;-85
2023/05/04 00:53:27;;;;;;;5.23;3.10;;;;;;;;;;5034491;28;20415;-83
2023/05/04 00:55:55;;;;;;;4.70;1.60;;;;;;;;;;5033471;28;20915;-84
2023/05/04 00:58:21;;;;;;;6.10;1.53;;;;;;;;;;5015482;28;20445;-84
2023/05/04 01:00:47;;;;;;;3.30;2.27;;;;;;;;;;5032654;28;20772;-83
2023/05/04 01:03:13;;;;;;;5.30;1.87;;;;;;;;;;5033082;28;20409;-84
2023/05/04 01:05:42;;;;;;;6.23;2.93;;;;;;;;;;5033997;28;20899;-83
2023/05/04 01:08:17;;;;;;;4.50;1.87;;;;;;;;;;5036922;28;20428;-84
2023/05/04 01:10:47;;;;;;;3.40;2.13;;;;;;;;;;5019118;28;20470;-85
2023/05/04 01:13:15;;;;;;;5.10;2.27;;;;;;;;;;5036942;28;20446;-84
2023/05/04 01:15:41;;;;;;;3.67;1.87;;;;;;;;;;5036284;28;20451;-83
2023/05/04 01:18:07;;;;;;;5.63;2.43;;;;;;;;;;5036635;28;20409;-82
2023/05/04 01:20:34;;;;;;;9.17;2.00;;;;;;;;;;5036287;28;20413;-82
2023/05/04 01:23:00;;;;;;;5.37;1.83;;;;;;;;;;5036166;28;20775;-83
2023/05/04 01:25:28;;;;;;;3.50;2.10;;;;;;;;;;5018756;28;20848;-83
2023/05/04 01:28:12;;;;;;;5.20;1.77;;;;;;;;;;5018740;28;20424;-83
2023/05/04 01:30:43;;;;;;;4.50;2.47;;;;;;;;;;5036228;28;20447;-82
2023/05/04 01:33:09;;;;;;;5.27;3.60;;;;;;;;;;5036379;28;20496;-82
2023/05/04 01:35:35;;;;;;;3.93;2.30;;;;;;;;;;5036391;28;20406;-84
2023/05/04 01:38:01;;;;;;;4.73;2.37;;;;;;;;;;5018646;28;20991;-83
2023/05/04 01:40:27;;;;;;;3.40;1.77;;;;;;;;;;5018728;28;20417;-84
2023/05/04 01:42:53;;;;;;;6.67;2.03;;;;;;;;;;5036236;28;20472;-83
2023/05/04 01:45:20;;;;;;;4.10;2.40;;;;;;;;;;5036173;28;20511;-85
2023/05/04 01:47:46;;;;;;;4.80;2.40;;;;;;;;;;5036531;28;20413;-84
2023/05/04 01:50:12;;;;;;;4.23;2.50;;;;;;;;;;5036483;28;20538;-83
2023/05/04 01:52:38;;;;;;;5.40;1.93;;;;;;;;;;5036237;28;20401;-82
2023/05/04 01:55:04;;;;;;;6.57;2.63;;;;;;;;;;5036155;28;20934;-83
2023/05/04 01:57:30;;;;;;;3.20;1.80;;;;;;;;;;5036187;28;20879;-83
2023/05/04 01:59:55;;;;;;;4.97;2.67;;;;;;;;;;5035919;28;20414;-85
2023/05/04 02:02:22;;;;;;;3.50;2.60;;;;;;;;;;5036171;28;20412;-85
2023/05/04 02:04:48;;;;;;;3.80;1.73;;;;;;;;;;5035964;28;20410;-83
2023/05/04 02:07:14;;;;;;;6.53;2.63;;;;;;;;;;5017782;28;20770;-84
2023/05/04 02:09:40;;;;;;;3.30;2.77;;;;;;;;;;5037888;28;20480;-83
2023/05/04 02:12:06;;;;;;;4.33;2.67;;;;;;;;;;5037424;28;20463;-80
2023/05/04 02:14:32;;;;;;;5.53;2.73;;;;;;;;;;5035262;28;20417;-80
2023/05/04 02:16:57;;;;;;;4.17;1.67;;;;;;;;;;5033548;28;20405;-80
2023/05/04 02:19:23;;;;;;;4.63;1.63;;;;;;;;;;5035114;28;20441;-81
2023/05/04 02:21:51;;;;;;;5.90;2.37;;;;;;;;;;5017320;28;20441;-81
2023/05/04 02:24:17;;;;;;;4.80;3.37;;;;;;;;;;5035073;28;20464;-81
2023/05/04 02:26:43;;;;;;;3.13;1.90;;;;;;;;;;5017305;28;20770;-81
2023/05/04 02:29:09;;;;;;;7.30;2.97;;;;;;;;;;5034872;28;20456;-81
2023/05/04 02:31:35;;;;;;;5.43;1.50;;;;;;;;;;5016818;28;20512;-82
2023/05/04 02:34:01;;;;;;;6.53;3.60;;;;;;;;;;5034937;28;20817;-81
2023/05/04 02:36:27;;;;;;;4.83;2.63;;;;;;;;;;5017155;28;20432;-80
2023/05/04 02:38:59;;;;;;;7.43;2.70;;;;;;;;;;5034788;28;20410;-82
2023/05/04 02:41:25;;;;;;;7.40;3.10;;;;;;;;;;5034842;28;20928;-81
2023/05/04 02:43:51;;;;;;;3.50;2.00;;;;;;;;;;5016945;28;20586;-81
2023/05/04 02:46:18;;;;;;;2.77;1.77;;;;;;;;;;5034485;28;20428;-81
2023/05/04 02:48:44;;;;;;;6.60;3.23;;;;;;;;;;5034702;28;20548;-83
2023/05/04 02:51:10;;;;;;;6.43;2.97;;;;;;;;;;5034728;28;20941;-81
2023/05/04 02:53:36;;;;;;;6.20;2.47;;;;;;;;;;5034658;28;20484;-81
2023/05/04 02:56:02;;;;;;;4.27;2.70;;;;;;;;;;5034568;28;20417;-80
2023/05/04 02:58:28;;;;;;;6.17;1.80;;;;;;;;;;5034813;28;20430;-81
2023/05/04 03:00:54;;;;;;;5.53;2.20;;;;;;;;;;5034345;28;20409;-81
2023/05/04 03:03:20;;;;;;;3.27;2.47;;;;;;;;;;5034792;28;20765;-80
2023/05/04 03:05:46;;;;;;;4.57;2.40;;;;;;;;;;5034549;28;20402;-84
2023/05/04 03:08:12;;;;;;;5.73;3.20;;;;;;;;;;5035040;28;20413;-83
2023/05/04 03:10:38;;;;;;;6.03;2.13;;;;;;;;;;5035060;28;20424;-81
2023/05/04 03:13:04;;;;;;;5.30;2.00;;;;;;;;;;5034610;28;20419;-83
2023/05/04 03:15:32;;;;;;;4.63;2.73;;;;;;;;;;5034224;28;20556;-83
2023/05/04 03:17:58;;;;;;;3.93;2.40;;;;;;;;;;5034987;28;20471;-83
2023/05/04 03:20:24;;;;;;;5.13;2.93;;;;;;;;;;5016437;28;20926;-85
2023/05/04 03:22:50;;;;;;;5.17;2.40;;;;;;;;;;5035469;28;20418;-86
2023/05/04 03:25:15;;;;;;;7.93;2.90;;;;;;;;;;5035343;28;20428;-86
2023/05/04 03:27:41;;;;;;;5.90;2.80;;;;;;;;;;5018730;28;20512;-83
2023/05/04 03:30:08;;;;;;;3.90;1.80;;;;;;;;;;5035690;28;20473;-87
2023/05/04 03:32:33;;;;;;;5.80;3.40;;;;;;;;;;5018378;28;20413;-86
2023/05/04 03:34:59;;;;;;;2.67;2.30;;;;;;;;;;5035102;28;20468;-87
2023/05/04 03:37:25;;;;;;;4.37;2.37;;;;;;;;;;5035257;28;20435;-85
2023/05/04 03:39:51;;;;;;;4.57;2.87;;;;;;;;;;5034792;28;20899;-85
2023/05/04 03:42:23;;;;;;;6.27;3.13;;;;;;;;;;5017259;28;20413;-85
2023/05/04 03:44:49;;;;;;;7.53;3.70;;;;;;;;;;5034596;28;20575;-85
2023/05/04 03:47:15;;;;;;;4.07;2.67;;;;;;;;;;5033776;28;20895;-86
2023/05/04 03:49:41;;;;;;;5.97;2.33;;;;;;;;;;5033742;28;20506;-86
2023/05/04 03:52:07;;;;;;;5.77;3.47;;;;;;;;;;4987058;28;20453;-84
2023/05/04 03:54:33;;;;;;;4.87;2.33;;;;;;;;;;4978913;28;20554;-86
2023/05/04 03:56:59;;;;;;;5.17;2.80;;;;;;;;;;4994445;28;20407;-85
2023/05/04 03:59:25;;;;;;;5.73;2.80;;;;;;;;;;4994488;28;20570;-87
2023/05/04 04:01:50;;;;;;;4.33;2.33;;;;;;;;;;4994070;28;20771;-83
2023/05/04 04:04:16;;;;;;;13.47;4.03;;;;;;;;;;4994458;28;20520;-83
2023/05/04 04:06:42;;;;;;;5.40;3.77;;;;;;;;;;4994300;28;20406;-84
2023/05/04 04:09:08;;;;;;;8.50;5.20;;;;;;;;;;4994520;28;20956;-84
2023/05/04 04:11:34;;;;;;;5.50;3.70;;;;;;;;;;4994720;28;20403;-83
2023/05/04 04:14:00;;;;;;;6.90;3.07;;;;;;;;;;4994536;28;20498;-84
2023/05/04 04:16:26;;;;;;;4.20;3.13;;;;;;;;;;4976840;28;20450;-84
2023/05/04 04:18:52;;;;;;;5.90;3.63;;;;;;;;;;4994405;28;20735;-84
2023/05/04 04:21:18;;;;;;;5.03;3.30;;;;;;;;;;4994412;28;21090;-84
2023/05/04 04:23:44;;;;;;;5.13;3.60;;;;;;;;;;4993895;28;20426;-83
2023/05/04 04:26:10;;;;;;;6.43;3.90;;;;;;;;;;4994352;28;20403;-84
2023/05/04 04:28:36;;;;;;;6.67;2.90;;;;;;;;;;4994230;28;20485;-83
2023/05/04 04:31:02;;;;;;;6.83;4.13;;;;;;;;;;4976216;28;20430;-85
2023/05/04 04:33:31;;;;;;;6.63;3.47;;;;;;;;;;4993911;28;20441;-84
2023/05/04 04:36:00;;;;;;;4.60;2.53;;;;;;;;;;4994225;28;20508;-85
2023/05/04 04:38:26;;;;;;;6.93;4.63;;;;;;;;;;4995093;28;20405;-83
2023/05/04 04:40:52;;;;;;;8.53;3.40;;;;;;;;;;4979168;28;20780;-83
2023/05/04 04:43:18;;;;;;;7.10;3.07;;;;;;;;;;5002430;28;20476;-83
2023/05/04 04:45:45;;;;;;;5.43;2.97;;;;;;;;;;5017907;28;20409;-84
2023/05/04 04:48:11;;;;;;;7.13;3.23;;;;;;;;;;5017536;28;20418;-84
2023/05/04 04:50:38;;;;;;;6.87;4.00;;;;;;;;;;5017740;28;20820;-85
2023/05/04 04:53:04;;;;;;;12.60;3.20;;;;;;;;;;5000421;28;20473;-85
2023/05/04 04:55:31;;;;;;;5.10;3.40;;;;;;;;;;5018637;28;20762;-84
2023/05/04 04:57:57;;;;;;;6.13;3.67;;;;;;;;;;5018716;28;20406;-86
2023/05/04 05:00:23;;;;;;;5.67;3.80;;;;;;;;;;5001675;28;20427;-88
2023/05/04 05:02:49;;;;;;;7.47;3.40;;;;;;;;;;5019898;28;20776;-87
2023/05/04 05:05:14;;;;;;;6.37;2.63;;;;;;;;;;5001537;28;20489;-87
2023/05/04 05:07:41;;;;;;;6.17;3.07;;;;;;;;;;5019651;28;20407;-84
2023/05/04 05:10:07;;;;;;;7.07;3.33;;;;;;;;;;5019328;28;20501;-86
2023/05/04 05:12:33;;;;;;;6.70;3.20;;;;;;;;;;5017687;28;20410;-83
2023/05/04 05:14:59;;;;;;;7.00;3.00;;;;;;;;;;5016562;28;20405;-83
2023/05/04 05:17:25;;;;;;;6.77;2.20;;;;;;;;;;4999309;28;20424;-83
2023/05/04 05:19:51;;;;;;;5.40;1.90;;;;;;;;;;4998866;28;20791;-83
2023/05/04 05:22:17;;;;;;;4.93;2.20;;;;;;;;;;5016700;28;20420;-84
2023/05/04 05:24:43;;;;;;;5.27;1.90;;;;;;;;;;5016682;28;20409;-84
2023/05/04 05:27:15;;;;;;;3.67;2.10;;;;;;;;;;5016958;28;20414;-86
2023/05/04 05:29:41;;;;;;;4.57;2.03;;;;;;;;;;4993169;28;20482;-87
2023/05/04 05:32:07;;;;;;;7.73;2.13;;;;;;;;;;5018918;28;20509;-87
2023/05/04 05:34:37;;;;;;;8.53;2.87;;;;;;;;;;5038112;28;20484;-88
2023/05/04 05:37:03;;;;;;;7.83;1.53;;;;;;;;;;5037568;28;20406;-87
2023/05/04 05:39:29;;;;;;;7.03;1.73;;;;;;;;;;5047226;28;20408;-88
2023/05/04 05:41:57;;;;;;;1.77;1.23;;;;;;;;;;5058912;28;20408;-89
2023/05/04 05:44:22;;;;;;;5.33;1.00;;;;;;;;;;5040488;28;20981;-86
2023/05/04 05:46:48;;;;;;;3.83;1.03;;;;;;;;;;5057209;28;20427;-87
2023/05/04 05:49:14;;;;;;;6.73;2.20;;;;;;;;;;5057127;28;20480;-87
2023/05/04 05:51:40;;;;;;;2.70;1.20;;;;;;;;;;5056710;28;20413;-86
2023/05/04 05:54:06;;;;;;;4.30;1.13;;;;;;;;;;5056670;28;20760;-85
2023/05/04 05:56:32;;;;;;;3.23;0.70;;;;;;;;;;5056591;28;20917;-86
2023/05/04 05:58:58;;;;;;;2.20;1.13;;;;;;;;;;5056434;28;20422;-86
2023/05/04 06:01:25;;;;;;;3.60;0.97;;;;;;;;;;5056273;28;20211;-86
2023/05/04 06:03:51;;;;;;;3.33;0.97;;;;;;;;;;5059011;28;20956;-89
2023/05/04 06:06:17;;;;;;;3.67;1.50;;;;;;;;;;5058745;28;20415;-90
2023/05/04 06:08:43;;;;;;;4.20;1.00;;;;;;;;;;5058353;28;20207;-90
2023/05/04 06:11:08;;;;;;;5.37;1.10;;;;;;;;;;5058276;28;20443;-83
2023/05/04 06:13:34;;;;;;;7.47;0.83;;;;;;;;;;5055173;28;20506;-84
2023/05/04 06:16:00;;;;;;;3.70;1.57;;;;;;;;;;5054911;28;20844;-83
2023/05/04 06:18:29;;;;;;;3.57;1.33;;;;;;;;;;5055057;28;20247;-84
2023/05/04 06:20:58;;;;;;;6.07;1.60;;;;;;;;;;5055067;28;20174;-82
2023/05/04 06:23:33;;;;;;;2.77;0.60;;;;;;;;;;5055174;28;20412;-85
2023/05/04 06:25:59;;;;;;;5.40;0.90;;;;;;;;;;5055048;28;20417;-82
2023/05/04 06:28:25;;;;;;;4.13;1.07;;;;;;;;;;5055140;28;20736;-84
2023/05/04 06:30:51;;;;;;;6.13;1.33;;;;;;;;;;5054597;28;20415;-84
2023/05/04 06:33:17;;;;;;;4.27;1.57;;;;;;;;;;5036786;28;20652;-83
2023/05/04 06:35:44;;;;;;;2.10;0.97;;;;;;;;;;5054725;28;20177;-85
2023/05/04 06:38:10;;;;;;;2.60;0.90;;;;;;;;;;5036958;28;20823;-85
2023/05/04 06:40:36;;;;;;;4.10;0.70;;;;;;;;;;5054810;28;20507;-83
2023/05/04 06:43:01;;;;;;;3.47;0.70;;;;;;;;;;5054550;28;20504;-85
2023/05/04 06:45:28;;;;;;;7.67;1.27;;;;;;;;;;5054447;28;20412;-82
2023/05/04 06:47:54;;;;;;;4.97;1.30;;;;;;;;;;5054780;28;20169;-85
2023/05/04 06:50:22;;;;;;;3.90;1.20;;;;;;;;;;5054689;28;20523;-84
2023/05/04 06:52:48;;;;;;;3.83;1.07;;;;;;;;;;5054916;28;20165;-85
2023/05/04 06:55:14;;;;;;;7.20;1.50;;;;;;;;;;5036777;28;20429;-86
2023/05/04 06:57:40;;;;;;;3.80;0.93;;;;;;;;;;5055045;28;20183;-85
2023/05/04 07:00:07;;;;;;;2.30;1.40;;;;;;;;;;5054299;28;20180;-85
2023/05/04 07:02:33;;;;;;;8.80;1.60;;;;;;;;;;5054295;28;20412;-85
2023/05/04 07:04:59;;;;;;;3.87;0.50;;;;;;;;;;5054347;28;20405;-86
2023/05/04 07:07:26;;;;;;;4.63;2.00;;;;;;;;;;5054645;28;20403;-85
2023/05/04 07:09:52;;;;;;;4.97;1.43;;;;;;;;;;5036403;28;21029;-84
2023/05/04 07:12:18;;;;;;;4.23;0.80;;;;;;;;;;5054604;28;20487;-84
2023/05/04 07:14:44;;;;;;;5.10;1.13;;;;;;;;;;5036585;28;20993;-87
2023/05/04 07:17:10;;;;;;;7.93;1.13;;;;;;;;;;5054463;28;20543;-84
2023/05/04 07:19:36;;;;;;;4.30;1.23;;;;;;;;;;5036801;28;20187;-83
2023/05/04 07:22:02;;;;;;;5.03;0.93;;;;;;;;;;5054089;28;20405;-83
2023/05/04 07:24:29;;;;;;;3.43;1.00;;;;;;;;;;5054073;28;20210;-84
2023/05/04 07:26:55;;;;;;;3.53;1.10;;;;;;;;;;5094610;22;20714;-85
2023/05/04 07:29:21;;;;;;;6.17;1.20;;;;;;;;;;5015402;28;20475;-84
2023/05/04 07:31:47;;;;;;;3.70;0.90;;;;;;;;;;5033820;28;20438;-85
2023/05/04 07:34:13;;;;;;;4.07;1.10;;;;;;;;;;5033990;28;20412;-84
2023/05/04 07:36:39;;;;;;;3.00;0.87;;;;;;;;;;5016259;28;20557;-85
2023/05/04 07:39:06;;;;;;;5.17;0.77;;;;;;;;;;5016131;28;20238;-83
2023/05/04 07:41:32;;;;;;;3.80;0.83;;;;;;;;;;5016066;28;20175;-84
2023/05/04 07:43:58;;;;;;;3.80;1.20;;;;;;;;;;5033702;28;20422;-84
2023/05/04 07:46:24;;;;;;;5.87;1.10;;;;;;;;;;5033511;28;20789;-84
2023/05/04 07:48:50;;;;;;;3.80;0.80;;;;;;;;;;5015968;28;20299;-85
2023/05/04 07:51:16;;;;;;;3.60;1.07;;;;;;;;;;5033648;28;20417;-84
2023/05/04 07:53:42;;;;;;;2.93;0.73;;;;;;;;;;5033639;28;20407;-86
2023/05/04 07:56:12;;;;;;;3.43;1.23;;;;;;;;;;5033316;28;20417;-83
2023/05/04 07:58:37;;;;;;;4.43;1.43;;;;;;;;;;5033379;28;20924;-84
2023/05/04 08:01:03;;;;;;;2.23;0.60;;;;;;;;;;5034149;28;20404;-88
2023/05/04 08:03:30;;;;;;;4.20;1.00;;;;;;;;;;5017852;28;20462;-84
2023/05/04 08:05:57;;;;;;;5.43;1.37;;;;;;;;;;5035151;28;20919;-86
2023/05/04 08:08:25;;;;;;;4.30;1.13;;;;;;;;;;5030887;28;20427;-83
2023/05/04 08:10:51;;;;;;;5.97;1.70;;;;;;;;;;5033338;28;20404;-85
2023/05/04 08:13:17;;;;;;;1.70;1.00;;;;;;;;;;5012947;28;21011;-84
2023/05/04 08:15:43;;;;;;;2.90;1.73;;;;;;;;;;5013411;28;20172;-85
2023/05/04 08:18:09;;;;;;;4.97;1.40;;;;;;;;;;5032287;28;20415;-86
2023/05/04 08:20:35;;;;;;;4.60;2.10;;;;;;;;;;5014954;28;20432;-86
2023/05/04 08:23:02;;;;;;;5.20;1.17;;;;;;;;;;5032565;28;20419;-85
2023/05/04 08:25:28;;;;;;;1.97;0.90;;;;;;;;;;5031802;28;20188;-85
2023/05/04 08:27:55;;;;;;;3.37;1.00;;;;;;;;;;5032086;28;20419;-87
2023/05/04 08:30:20;;;;;;;6.13;1.37;;;;;;;;;;5014272;28;20483;-86
2023/05/04 08:32:47;;;;;;;8.20;1.10;;;;;;;;;;5032149;28;20405;-86
2023/05/04 08:35:13;;;;;;;2.37;1.47;;;;;;;;;;5032215;28;20251;-84
2023/05/04 08:37:39;;;;;;;3.90;1.80;;;;;;;;;;5031991;28;20828;-85
2023/05/04 08:40:05;;;;;;;3.50;0.97;;;;;;;;;;5031898;28;20423;-85
2023/05/04 08:42:31;;;;;;;4.40;0.80;;;;;;;;;;5032107;28;20424;-85
2023/05/04 08:44:58;;;;;;;4.77;1.13;;;;;;;;;;5031457;28;21021;-87
2023/05/04 08:47:25;;;;;;;5.37;0.60;;;;;;;;;;5013976;28;20557;-84
2023/05/04 08:49:53;;;;;;;3.87;1.20;;;;;;;;;;5031614;28;20541;-84
2023/05/04 08:52:20;;;;;;;5.13;1.03;;;;;;;;;;5013999;28;20781;-85
2023/05/04 08:54:46;;;;;;;3.57;1.40;;;;;;;;;;5031935;28;20448;-85
2023/05/04 08:57:12;;;;;;;2.70;0.80;;;;;;;;;;5031865;28;20413;-85
2023/05/04 08:59:38;;;;;;;3.87;1.27;;;;;;;;;;5030840;28;20429;-87
2023/05/04 09:02:04;;;;;;;4.03;1.10;;;;;;;;;;5031338;28;20421;-85
2023/05/04 09:04:30;;;;;;;4.83;1.37;;;;;;;;;;5033765;28;20424;-89
2023/05/04 09:06:57;;;;;;;5.63;1.90;;;;;;;;;;5015383;28;20421;-86
2023/05/04 09:09:25;;;;;;;2.67;1.20;;;;;;;;;;5035409;28;20887;-86
2023/05/04 09:11:51;;;;;;;5.87;1.20;;;;;;;;;;5017784;28;20424;-85
2023/05/04 09:14:17;;;;;;;6.80;1.40;;;;;;;;;;5034343;28;20417;-86
2023/05/04 09:16:43;;;;;;;7.73;1.70;;;;;;;;;;5017161;28;20487;-86
2023/05/04 09:19:19;;;;;;;3.77;1.77;;;;;;;;;;5000807;28;20245;-85
2023/05/04 09:21:46;;;;;;;9.87;1.80;;;;;;;;;;5034256;28;20502;-86
2023/05/04 09:24:12;;;;;;;1.63;0.80;;;;;;;;;;5053012;28;20400;-90
2023/05/04 09:26:38;;;;;;;3.27;0.70;;;;;;;;;;5037863;28;20537;-84
2023/05/04 09:29:14;;;;;;;3.53;1.10;;;;;;;;;;5056512;28;21034;-85
2023/05/04 09:31:43;;;;;;;2.47;1.00;;;;;;;;;;5037650;28;20400;-85
2023/05/04 09:34:09;;;;;;;3.87;1.37;;;;;;;;;;5056115;28;20473;-84
2023/05/04 09:36:36;;;;;;;4.77;1.27;;;;;;;;;;5055684;28;20905;-82
2023/05/04 09:39:09;;;;;;;3.13;1.60;;;;;;;;;;5055278;28;20419;-87
2023/05/04 09:41:35;;;;;;;2.60;0.73;;;;;;;;;;5038566;28;20493;-86
2023/05/04 09:44:03;;;;;;;3.07;0.87;;;;;;;;;;5030647;28;20422;-83
2023/05/04 09:46:29;;;;;;;5.67;0.90;;;;;;;;;;5015233;28;20406;-81
2023/05/04 09:48:55;;;;;;;3.77;0.90;;;;;;;;;;4997433;28;20548;-82
2023/05/04 09:51:22;;;;;;;2.10;0.80;;;;;;;;;;5015007;28;20810;-81
2023/05/04 09:53:51;;;;;;;4.50;1.07;;;;;;;;;;5014371;28;20422;-81
2023/05/04 09:56:17;;;;;;;4.47;1.47;;;;;;;;;;5014548;28;20421;-81
2023/05/04 09:58:43;;;;;;;2.63;0.93;;;;;;;;;;5014647;28;20421;-82
2023/05/04 10:01:10;;;;;;;2.10;0.73;;;;;;;;;;5014154;28;20413;-83
2023/05/04 10:03:36;;;;;;;2.70;0.80;;;;;;;;;;5014431;28;20505;-81
2023/05/04 10:06:03;;;;;;;3.63;1.03;;;;;;;;;;4996851;28;20425;-82
2023/05/04 10:08:29;;;;;;;3.13;0.90;;;;;;;;;;5014336;28;20406;-82
2023/05/04 10:10:55;;;;;;;1.10;0.73;;;;;;;;;;5014310;28;20511;-81
2023/05/04 10:13:21;;;;;;;4.13;1.20;;;;;;;;;;5014072;28;20959;-83
2023/05/04 10:15:54;;;;;;;1.93;0.97;;;;;;;;;;5013860;28;20285;-81
2023/05/04 10:18:29;;;;;;;2.03;0.60;;;;;;;;;;5014262;28;20476;-82
2023/05/04 10:21:14;;;;;;;3.43;0.97;;;;;;;;;;5014137;28;20418;-81
2023/05/04 10:23:53;;;;;;;3.43;1.10;;;;;;;;;;5014236;28;20423;-82
2023/05/04 10:26:32;;;;;;;2.73;0.80;;;;;;;;;;4996540;28;20991;-83
2023/05/04 10:29:11;;;;;;;2.13;1.23;;;;;;;;;;5013607;28;20469;-84
2023/05/04 10:31:40;;;;;;;5.93;1.20;;;;;;;;;;5014294;28;20797;-83
2023/05/04 10:34:07;;;;;;;2.63;1.10;;;;;;;;;;5013893;28;20549;-83
2023/05/04 10:36:36;;;;;;;3.67;1.30;;;;;;;;;;5013870;28;20406;-83
2023/05/04 10:39:03;;;;;;;1.83;0.80;;;;;;;;;;5012825;28;20886;-83
2023/05/04 10:41:29;;;;;;;2.57;1.50;;;;;;;;;;5013830;28;20780;-84
2023/05/04 10:44:05;;;;;;;2.80;0.90;;;;;;;;;;5013477;28;20418;-84
2023/05/04 10:46:30;;;;;;;2.77;0.80;;;;;;;;;;5013783;28;20562;-82
2023/05/04 10:48:57;;;;;;;3.50;1.20;;;;;;;;;;5013720;28;20465;-83
2023/05/04 10:51:23;;;;;;;2.63;1.07;;;;;;;;;;5013771;28;20649;-83
2023/05/04 10:53:49;;;;;;;3.83;1.10;;;;;;;;;;5013598;28;20401;-84
2023/05/04 10:56:25;;;;;;;3.40;0.87;;;;;;;;;;5013476;28;20457;-85
2023/05/04 10:58:51;;;;;;;1.77;1.13;;;;;;;;;;5013625;28;20405;-85
2023/05/04 11:01:17;;;;;;;4.57;1.33;;;;;;;;;;5013841;28;20444;-83
2023/05/04 11:03:43;;;;;;;2.83;1.20;;;;;;;;;;5014413;28;20406;-84
2023/05/04 11:06:17;;;;;;;3.30;1.30;;;;;;;;;;5014499;28;20434;-83
2023/05/04 11:08:48;;;;;;;3.00;1.23;;;;;;;;;;5014388;28;20418;-83
2023/05/04 11:11:16;;;;;;;4.00;1.17;;;;;;;;;;5014414;28;20414;-83
2023/05/04 11:13:45;;;;;;;3.00;0.93;;;;;;;;;;4984042;28;20433;-89
2023/05/04 11:16:27;;;;;;;5.27;1.50;;;;;;;;;;5035977;28;20441;-84
2023/05/04 11:18:53;;;;;;;2.67;1.30;;;;;;;;;;5023413;28;20429;-87
2023/05/04 11:21:25;;;;;;;3.00;0.90;;;;;;;;;;5015545;28;20767;-82
2023/05/04 11:23:58;;;;;;;2.80;1.30;;;;;;;;;;5015818;28;20508;-90
2023/05/04 11:26:24;;;;;;;1.93;0.90;;;;;;;;;;5015791;28;20453;-89
2023/05/04 11:28:50;;;;;;;2.30;0.70;;;;;;;;;;5015140;28;20497;-85
2023/05/04 11:31:17;;;;;;;3.47;1.20;;;;;;;;;;4998051;28;20441;-87
2023/05/04 11:33:46;;;;;;;3.43;0.87;;;;;;;;;;5015161;28;20394;-90
2023/05/04 11:36:12;;;;;;;4.30;1.03;;;;;;;;;;4997016;28;20454;-86
2023/05/04 11:38:38;;;;;;;2.80;0.67;;;;;;;;;;5014950;28;20832;-90
2023/05/04 11:41:04;;;;;;;9.13;1.27;;;;;;;;;;5015236;28;20695;-91
2023/05/04 11:43:31;;;;;;;2.50;0.70;;;;;;;;;;5015748;28;20413;-89
2023/05/04 11:45:59;;;;;;;4.20;1.20;;;;;;;;;;5015095;28;20182;-88
2023/05/04 11:48:25;;;;;;;2.17;1.10;;;;;;;;;;4997376;28;20425;-90
2023/05/04 11:50:52;;;;;;;2.20;0.97;;;;;;;;;;5015425;28;20824;-88
2023/05/04 11:53:21;;;;;;;0.90;0.53;;;;;;;;;;5015905;28;20545;-87
2023/05/04 11:55:47;;;;;;;3.70;0.93;;;;;;;;;;4996774;28;20421;-86
2023/05/04 11:58:13;;;;;;;2.07;1.07;;;;;;;;;;5013935;28;20406;-88
2023/05/04 12:00:42;;;;;;;1.40;0.63;;;;;;;;;;5013801;28;20763;-86
2023/05/04 12:03:11;;;;;;;3.77;1.00;;;;;;;;;;4996639;28;20175;-89
2023/05/04 12:05:37;;;;;;;2.20;0.87;;;;;;;;;;5014110;28;20406;-85
2023/05/04 12:08:06;;;;;;;4.13;0.80;;;;;;;;;;5015907;28;20424;-87
2023/05/04 12:10:33;;;;;;;2.33;0.87;;;;;;;;;;5014874;28;20465;-85
2023/05/04 12:12:59;;;;;;;2.40;1.17;;;;;;;;;;4967402;28;20448;-83
2023/05/04 12:15:33;;;;;;;2.00;0.93;;;;;;;;;;5003268;28;20414;-82
2023/05/04 12:17:59;;;;;;;3.27;0.70;;;;;;;;;;5013311;28;20422;-85
2023/05/04 12:20:29;;;;;;;8.87;1.40;;;;;;;;;;5013420;28;20572;-83
2023/05/04 12:22:56;;;;;;;1.53;0.70;;;;;;;;;;5013492;28;20818;-85
2023/05/04 12:25:22;;;;;;;4.50;1.27;;;;;;;;;;5014308;28;20409;-84
2023/05/04 12:27:48;;;;;;;1.77;0.77;;;;;;;;;;5013180;28;20457;-84
2023/05/04 12:30:15;;;;;;;3.43;1.27;;;;;;;;;;5012886;28;20835;-84
2023/05/04 12:32:41;;;;;;;4.47;1.53;;;;;;;;;;5013335;28;20405;-87
2023/05/04 12:35:07;;;;;;;2.27;1.13;;;;;;;;;;5013243;28;20769;-86
2023/05/04 12:37:33;;;;;;;2.80;0.50;;;;;;;;;;5013230;28;20440;-85
2023/05/04 12:39:59;;;;;;;3.20;1.23;;;;;;;;;;5012547;28;20813;-85
2023/05/04 12:42:25;;;;;;;3.47;1.63;;;;;;;;;;4993377;28;20449;-89
2023/05/04 12:44:52;;;;;;;3.63;1.30;;;;;;;;;;5004120;28;20206;-89
2023/05/04 12:47:19;;;;;;;1.73;0.93;;;;;;;;;;4984803;28;20867;-86
2023/05/04 12:49:45;;;;;;;3.30;1.40;;;;;;;;;;5013765;28;21104;-88
2023/05/04 12:52:11;;;;;;;3.20;0.57;;;;;;;;;;5032150;28;20413;-86
2023/05/04 12:54:37;;;;;;;3.87;1.33;;;;;;;;;;5032236;28;20171;-89
2023/05/04 12:57:03;;;;;;;3.50;0.67;;;;;;;;;;5031888;28;20209;-88
2023/05/04 12:59:30;;;;;;;3.00;1.47;;;;;;;;;;5011820;28;20179;-90
2023/05/04 13:01:56;;;;;;;2.57;0.47;;;;;;;;;;4997390;28;20421;-90
2023/05/04 13:04:22;;;;;;;5.10;1.43;;;;;;;;;;5001873;28;20426;-89
2023/05/04 13:06:48;;;;;;;2.10;0.87;;;;;;;;;;5000309;28;20422;-88
2023/05/04 13:09:14;;;;;;;3.13;1.47;;;;;;;;;;4999376;28;21078;-89
2023/05/04 13:11:40;;;;;;;2.97;0.80;;;;;;;;;;4999871;28;20179;-89
2023/05/04 13:14:07;;;;;;;5.10;1.00;;;;;;;;;;5007690;28;20493;-92
2023/05/04 13:16:33;;;;;;;1.47;1.10;;;;;;;;;;5014832;28;20459;-89
2023/05/04 13:18:59;;;;;;;2.90;0.80;;;;;;;;;;5009520;28;20417;-89
2023/05/04 13:21:24;;;;;;;2.23;1.43;;;;;;;;;;5025011;28;20482;-86
2023/05/04 13:23:51;;;;;;;2.73;1.00;;;;;;;;;;5023347;28;20417;-90
2023/05/04 13:26:17;;;;;;;4.27;1.17;;;;;;;;;;5013345;28;20230;-89
2023/05/04 13:28:43;;;;;;;2.90;0.93;;;;;;;;;;5023483;28;20464;-87
2023/05/04 13:31:09;;;;;;;2.30;0.77;;;;;;;;;;5024663;28;20417;-88
2023/05/04 13:33:37;;;;;;;1.90;0.77;;;;;;;;;;5045191;28;20413;-89
2023/05/04 13:36:03;;;;;;;2.77;0.43;;;;;;;;;;4974736;28;20424;-90
2023/05/04 13:38:29;;;;;;;2.40;0.70;;;;;;;;;;5046732;28;20444;-91
2023/05/04 13:40:55;;;;;;;5.33;1.43;;;;;;;;;;5029105;28;20478;-89
2023/05/04 13:43:22;;;;;;;2.70;1.07;;;;;;;;;;5032250;28;20420;-93
2023/05/04 13:45:47;;;;;;;2.30;0.53;;;;;;;;;;5030903;28;20421;-89
2023/05/04 13:48:14;;;;;;;3.00;1.10;;;;;;;;;;5089258;23;20499;-87
2023/05/04 13:50:40;;;;;;;3.30;1.13;;;;;;;;;;4998294;28;20285;-88
2023/05/04 13:53:06;;;;;;;1.80;0.80;;;;;;;;;;5016441;28;20457;-88
2023/05/04 13:55:32;;;;;;;3.20;1.13;;;;;;;;;;5015749;28;20414;-89
2023/05/04 13:57:58;;;;;;;2.43;0.93;;;;;;;;;;5016663;28;20508;-88
2023/05/04 14:00:24;;;;;;;3.27;1.17;;;;;;;;;;5015736;28;20462;-86
2023/05/04 14:02:50;;;;;;;2.43;0.60;;;;;;;;;;4998696;28;20907;-89
2023/05/04 14:05:16;;;;;;;3.20;1.10;;;;;;;;;;5016637;28;20428;-84
2023/05/04 14:07:42;;;;;;;2.30;1.03;;;;;;;;;;5016020;28;20405;-82
2023/05/04 14:10:08;;;;;;;2.50;0.97;;;;;;;;;;5015162;28;20419;-84
2023/05/04 14:12:34;;;;;;;2.23;0.80;;;;;;;;;;4997949;28;20515;-82
2023/05/04 14:15:00;;;;;;;6.13;1.30;;;;;;;;;;4997309;28;20870;-83
2023/05/04 14:17:26;;;;;;;1.97;0.90;;;;;;;;;;5014653;28;20422;-82
2023/05/04 14:19:52;;;;;;;8.37;1.37;;;;;;;;;;5014887;28;20480;-85
2023/05/04 14:22:18;;;;;;;6.13;1.63;;;;;;;;;;4997798;28;20421;-84
2023/05/04 14:24:44;;;;;;;2.30;1.20;;;;;;;;;;5015215;28;20569;-82
2023/05/04 14:27:10;;;;;;;2.50;0.80;;;;;;;;;;4997544;28;20413;-82
2023/05/04 14:29:39;;;;;;;4.20;1.50;;;;;;;;;;5092895;22;20471;-80
2023/05/04 14:32:05;;;;;;;3.10;1.03;;;;;;;;;;5016749;28;20427;-83
2023/05/04 14:34:31;;;;;;;2.10;1.00;;;;;;;;;;5017100;28;20928;-83
2023/05/04 14:36:57;;;;;;;5.00;1.33;;;;;;;;;;5051768;28;20712;-82
2023/05/04 14:39:23;;;;;;;3.83;0.77;;;;;;;;;;5054133;28;20466;-83
2023/05/04 14:41:51;;;;;;;3.83;1.77;;;;;;;;;;5036676;28;20480;-81